Time;durP1;ratioP1;P1;durP2;ratioP2;P2;SDS_P1;SDS_P2;PMS_P1;PMS_P2;Temp;Humidity;BMP_temperature;BMP_pressure;BME280_temperature;BME280_humidity;BME280_pressure;Samples;Min_cycle;Max_cycle;Signal;HPM_P1;HPM_P2
2022/06/19 00:01:32;;;;;;;3.08;2.03;;;;;;;19.64;54.59;100166.13;4468495;32;34837;-75
2022/06/19 00:04:03;;;;;;;3.85;2.50;;;;;;;19.94;53.85;100165.97;4467914;32;34473;-72
2022/06/19 00:06:31;;;;;;;3.55;2.45;;;;;;;20.05;53.66;100175.69;4468020;32;33938;-71
2022/06/19 00:08:58;;;;;;;3.92;2.50;;;;;;;19.64;54.80;100168.88;4467439;32;34299;-74
2022/06/19 00:11:26;;;;;;;2.97;2.10;;;;;;;19.87;54.22;100178.19;4467387;32;34964;-70
2022/06/19 00:13:53;;;;;;;3.65;2.22;;;;;;;19.84;54.25;100170.50;4467461;32;33285;-72
2022/06/19 00:16:20;;;;;;;3.05;2.40;;;;;;;20.07;53.63;100166.00;4467085;32;33630;-74
2022/06/19 00:18:48;;;;;;;2.87;2.28;;;;;;;19.91;54.09;100155.53;4467592;32;34030;-74
2022/06/19 00:21:17;;;;;;;2.80;2.30;;;;;;;19.94;54.06;100161.28;4465727;32;33742;-74
2022/06/19 00:23:45;;;;;;;2.50;2.03;;;;;;;19.87;53.99;100153.41;4467562;32;33605;-71
2022/06/19 00:26:14;;;;;;;3.53;2.00;;;;;;;19.73;54.46;100160.78;4452972;32;33594;-73
2022/06/19 00:28:44;;;;;;;3.08;2.08;;;;;;;19.76;54.50;100151.94;4467448;32;34147;-72
2022/06/19 00:31:15;;;;;;;4.15;2.05;;;;;;;19.78;54.35;100160.69;4467010;32;33409;-71
2022/06/19 00:33:43;;;;;;;2.55;1.90;;;;;;;19.63;54.99;100159.00;4467622;32;32653;-70
2022/06/19 00:36:10;;;;;;;3.80;2.42;;;;;;;19.36;55.80;100162.41;4468564;32;34838;-73
2022/06/19 00:38:38;;;;;;;2.90;2.30;;;;;;;19.61;55.16;100152.97;4469138;32;34217;-71
2022/06/19 00:41:06;;;;;;;3.00;2.37;;;;;;;19.63;55.09;100161.75;4469265;32;33997;-71
2022/06/19 00:44:05;;;;;;;3.42;2.20;;;;;;;19.55;55.37;100154.16;4468098;32;33245;-73
2022/06/19 00:46:46;;;;;;;3.30;2.50;;;;;;;19.73;54.85;100158.03;4454959;32;34609;-74
2022/06/19 00:49:19;;;;;;;3.20;2.28;;;;;;;19.59;55.14;100155.19;4454922;32;35061;-70
2022/06/19 00:52:06;;;;;;;5.53;2.40;;;;;;;19.42;55.48;100157.66;4454675;32;34208;-70
2022/06/19 00:54:42;;;;;;;3.90;1.90;;;;;;;19.73;54.81;100151.72;4468984;32;33369;-71
2022/06/19 00:57:11;;;;;;;2.42;1.95;;;;;;;19.33;55.73;100148.44;4454776;32;34901;-72
2022/06/19 00:59:43;;;;;;;3.17;2.30;;;;;;;19.08;56.68;100147.69;4454245;32;33901;-71
2022/06/19 01:02:12;;;;;;;2.60;2.20;;;;;;;18.80;57.11;100147.47;4468076;32;34287;-72
2022/06/19 01:04:44;;;;;;;3.95;2.17;;;;;;;19.02;56.46;100135.09;4454309;32;33423;-71
2022/06/19 01:07:11;;;;;;;3.70;2.30;;;;;;;19.23;55.82;100144.72;4455019;32;33856;-71
2022/06/19 01:09:39;;;;;;;2.55;2.12;;;;;;;19.12;56.24;100145.16;4468603;32;34891;-73
2022/06/19 01:12:08;;;;;;;2.83;2.10;;;;;;;19.10;56.23;100145.44;4467683;32;34593;-70
2022/06/19 01:14:38;;;;;;;2.28;1.87;;;;;;;19.29;55.67;100137.22;4468652;32;34681;-70
2022/06/19 01:17:05;;;;;;;3.53;2.45;;;;;;;19.35;55.85;100137.94;4454546;32;33736;-74
2022/06/19 01:19:38;;;;;;;3.28;2.22;;;;;;;19.23;55.90;100133.72;4468892;32;34115;-70
2022/06/19 01:22:39;;;;;;;3.30;2.17;;;;;;;19.20;56.45;100127.97;4454430;32;33796;-71
2022/06/19 01:25:16;;;;;;;2.92;2.30;;;;;;;18.90;57.27;100131.97;4455364;32;32988;-72
2022/06/19 01:30:42;;;;;;;2.78;2.10;;;;;;;19.25;56.40;100125.16;4468535;32;34208;-71
2022/06/19 01:33:16;;;;;;;3.20;2.20;;;;;;;19.11;56.49;100121.50;4454181;32;34038;-72
2022/06/19 01:35:45;;;;;;;4.72;2.40;;;;;;;19.00;56.74;100129.91;4453901;32;33455;-75
2022/06/19 01:38:15;;;;;;;3.10;2.10;;;;;;;18.85;57.08;100124.59;4454697;32;33470;-74
2022/06/19 01:40:46;;;;;;;3.58;2.28;;;;;;;18.97;56.78;100126.94;4454722;32;34962;-73
2022/06/19 01:43:14;;;;;;;3.58;2.15;;;;;;;19.06;56.71;100125.97;4453814;32;34104;-70
2022/06/19 01:45:45;;;;;;;2.70;2.00;;;;;;;19.06;56.65;100125.97;4454232;32;34373;-73
2022/06/19 01:48:12;;;;;;;2.80;1.83;;;;;;;18.96;56.77;100128.87;4454405;32;34159;-71
2022/06/19 01:50:40;;;;;;;3.10;2.10;;;;;;;19.06;56.28;100125.97;4454185;32;33985;-71
2022/06/19 01:53:15;;;;;;;3.42;2.30;;;;;;;19.08;56.55;100122.94;4454288;32;34436;-74
2022/06/19 01:55:43;;;;;;;2.85;2.08;;;;;;;19.13;56.35;100125.59;4454639;32;33154;-72
2022/06/19 01:58:11;;;;;;;3.03;2.15;;;;;;;18.94;57.05;100127.50;4453795;32;34003;-72
2022/06/19 02:00:41;;;;;;;3.80;2.17;;;;;;;18.77;57.54;100115.06;4454067;32;33931;-71
2022/06/19 02:03:19;;;;;;;3.70;2.10;;;;;;;18.93;57.18;100117.63;4454242;32;33986;-73
2022/06/19 02:05:47;;;;;;;2.78;2.00;;;;;;;18.94;57.78;100108.25;4453743;32;33741;-71
2022/06/19 02:08:15;;;;;;;3.37;2.20;;;;;;;18.97;57.22;100108.50;4454197;32;33729;-74
2022/06/19 02:10:45;;;;;;;2.35;1.90;;;;;;;18.92;57.29;100102.25;4468225;32;35047;-71
2022/06/19 02:13:15;;;;;;;3.03;2.03;;;;;;;18.86;57.44;100107.00;4467421;32;34472;-72
2022/06/19 02:15:44;;;;;;;3.65;2.10;;;;;;;18.90;57.21;100099.81;4453739;32;33395;-72
2022/06/19 02:18:17;;;;;;;3.08;2.60;;;;;;;18.87;57.51;100103.12;4468479;32;33976;-71
2022/06/19 02:20:44;;;;;;;2.40;2.10;;;;;;;18.99;56.77;100098.03;4454121;32;34966;-72
2022/06/19 02:23:12;;;;;;;2.70;2.12;;;;;;;18.98;56.54;100095.56;4453444;32;33981;-71
2022/06/19 02:25:41;;;;;;;3.03;2.12;;;;;;;19.09;56.37;100098.97;4468108;32;34186;-70
2022/06/19 02:28:09;;;;;;;4.25;2.20;;;;;;;18.96;57.04;100100.53;4467840;32;34732;-70
2022/06/19 02:30:36;;;;;;;2.70;2.20;;;;;;;19.00;56.77;100098.84;4454098;32;35089;-71
2022/06/19 02:33:05;;;;;;;2.62;2.00;;;;;;;18.87;57.26;100105.88;4453681;32;34744;-71
2022/06/19 02:35:33;;;;;;;2.47;2.00;;;;;;;18.47;58.48;100105.25;4453911;32;33608;-72
2022/06/19 02:38:05;;;;;;;2.62;2.10;;;;;;;18.38;58.64;100107.84;4467972;32;34654;-70
2022/06/19 02:40:55;;;;;;;2.55;2.20;;;;;;;18.59;58.10;100105.66;4467576;32;35015;-71
2022/06/19 02:43:26;;;;;;;2.37;2.05;;;;;;;19.03;57.03;100104.56;4453512;32;33764;-71
2022/06/19 02:45:55;;;;;;;3.67;2.62;;;;;;;18.91;56.97;100108.88;4467610;32;33365;-72
2022/06/19 02:48:24;;;;;;;3.03;2.40;;;;;;;18.89;57.33;100105.59;4467832;32;34052;-71
2022/06/19 02:50:51;;;;;;;3.20;2.30;;;;;;;19.10;56.72;100100.63;4467732;32;33833;-73
2022/06/19 02:53:20;;;;;;;3.15;2.20;;;;;;;18.82;57.23;100093.03;4467092;32;34866;-71
2022/06/19 02:55:48;;;;;;;3.33;2.12;;;;;;;18.84;57.12;100101.78;4453602;32;34743;-71
2022/06/19 02:58:19;;;;;;;2.45;1.95;;;;;;;18.98;56.62;100090.88;4467168;32;34589;-70
2022/06/19 03:00:48;;;;;;;2.60;2.03;;;;;;;19.00;56.44;100091.41;4467597;32;34019;-71
2022/06/19 03:03:29;;;;;;;3.05;2.15;;;;;;;18.96;56.55;100092.28;4467150;32;34559;-71
2022/06/19 03:05:57;;;;;;;3.20;2.12;;;;;;;18.69;58.18;100084.66;4452746;32;33517;-71
2022/06/19 03:08:24;;;;;;;4.15;2.30;;;;;;;18.76;57.99;100094.16;4453237;32;33494;-72
2022/06/19 03:10:52;;;;;;;3.15;2.20;;;;;;;18.50;58.77;100085.44;4466597;32;33778;-76
2022/06/19 03:13:21;;;;;;;2.72;2.03;;;;;;;18.66;58.46;100088.84;4467011;32;33005;-72
2022/06/19 03:16:02;;;;;;;2.67;2.10;;;;;;;18.80;58.14;100089.75;4467312;32;33252;-78
2022/06/19 03:18:31;;;;;;;2.95;2.10;;;;;;;19.16;57.20;100085.69;4452775;32;35059;-71
2022/06/19 03:20:59;;;;;;;2.55;2.30;;;;;;;19.12;57.29;100084.66;4466344;32;34395;-71
2022/06/19 03:23:26;;;;;;;2.80;2.03;;;;;;;19.16;57.60;100080.19;4466490;32;34273;-70
2022/06/19 03:25:54;;;;;;;4.05;2.03;;;;;;;19.14;58.35;100080.50;4467209;32;33602;-71
2022/06/19 03:28:21;;;;;;;3.17;2.40;;;;;;;19.20;57.98;100081.22;4469640;32;34712;-70
2022/06/19 03:30:53;;;;;;;3.28;2.10;;;;;;;19.53;57.32;100078.53;4469161;32;33957;-72
2022/06/19 03:33:22;;;;;;;3.30;2.33;;;;;;;19.71;56.71;100072.16;4452210;32;34750;-72
2022/06/19 03:35:49;;;;;;;3.53;2.25;;;;;;;20.03;55.45;100079.56;4454236;32;33651;-70
2022/06/19 03:38:17;;;;;;;2.28;2.03;;;;;;;20.12;55.94;100082.44;4453939;32;34032;-79
2022/06/19 03:40:45;;;;;;;3.00;1.98;;;;;;;20.36;55.18;100081.44;4453868;32;35031;-70
2022/06/19 03:43:33;;;;;;;3.28;2.28;;;;;;;20.46;54.48;100076.53;4453488;32;34096;-71
2022/06/19 03:46:02;;;;;;;4.35;2.20;;;;;;;20.75;53.15;100080.94;4453989;32;33311;-71
2022/06/19 03:48:30;;;;;;;3.55;2.20;;;;;;;20.72;54.65;100080.75;4455523;32;33869;-80
2022/06/19 03:50:57;;;;;;;3.05;2.33;;;;;;;20.73;54.98;100079.59;4469334;32;35111;-72
2022/06/19 03:53:25;;;;;;;2.75;1.95;;;;;;;21.03;53.65;100089.16;4469053;32;33834;-77
2022/06/19 03:55:53;;;;;;;2.25;1.98;;;;;;;20.80;54.58;100080.84;4469258;32;33338;-78
2022/06/19 03:58:21;;;;;;;3.20;2.03;;;;;;;21.11;53.15;100085.66;4454264;32;34051;-70
2022/06/19 04:00:48;;;;;;;3.62;2.12;;;;;;;21.14;52.07;100082.25;4467699;32;34295;-73
2022/06/19 04:03:16;;;;;;;2.85;1.90;;;;;;;21.28;52.40;100083.03;4467461;32;34104;-70
2022/06/19 04:05:44;;;;;;;2.70;2.12;;;;;;;21.77;50.81;100085.19;4468080;32;34035;-69
2022/06/19 04:08:11;;;;;;;1.95;1.70;;;;;;;22.26;49.56;100075.06;4452917;32;34702;-70
2022/06/19 04:10:39;;;;;;;3.10;2.17;;;;;;;22.50;48.54;100071.91;4467753;32;33930;-70
2022/06/19 04:13:06;;;;;;;2.65;1.95;;;;;;;22.46;50.69;100065.38;4467403;32;34231;-70
2022/06/19 04:15:35;;;;;;;2.85;1.90;;;;;;;22.32;50.93;100073.81;4468121;32;34565;-72
2022/06/19 04:18:03;;;;;;;3.40;2.17;;;;;;;22.15;52.03;100077.28;4465905;32;33731;-71
2022/06/19 04:20:31;;;;;;;2.17;1.83;;;;;;;22.06;51.56;100071.72;4467891;32;33756;-77
2022/06/19 04:22:59;;;;;;;2.17;1.92;;;;;;;21.92;51.15;100071.81;4462684;32;34335;-72
2022/06/19 04:25:27;;;;;;;4.57;2.47;;;;;;;22.47;51.59;100067.03;4467948;32;33102;-71
2022/06/19 04:27:55;;;;;;;2.83;2.10;;;;;;;22.75;51.54;100075.06;4467353;32;34871;-74
2022/06/19 04:30:22;;;;;;;2.30;1.90;;;;;;;23.04;49.41;100066.97;4466212;32;34189;-76
2022/06/19 04:32:50;;;;;;;3.20;2.25;;;;;;;23.25;48.82;100064.37;4467875;32;33930;-73
2022/06/19 04:35:17;;;;;;;3.67;2.10;;;;;;;23.47;48.74;100068.13;4454808;32;34065;-68
2022/06/19 04:37:45;;;;;;;3.55;2.25;;;;;;;23.13;48.38;100066.97;4454214;32;34691;-69
2022/06/19 04:40:13;;;;;;;2.17;1.95;;;;;;;23.21;50.05;100074.47;4468811;32;34977;-68
2022/06/19 04:42:41;;;;;;;2.37;1.77;;;;;;;23.48;47.50;100070.56;4468325;32;33545;-71
2022/06/19 04:45:09;;;;;;;2.37;1.90;;;;;;;23.68;48.25;100073.78;4469005;32;33270;-74
2022/06/19 04:47:36;;;;;;;2.50;2.17;;;;;;;24.12;47.66;100075.31;4466612;32;33979;-70
2022/06/19 04:50:04;;;;;;;3.42;2.45;;;;;;;24.16;46.83;100072.69;4468877;32;33746;-76
2022/06/19 04:52:32;;;;;;;2.58;2.08;;;;;;;24.46;45.54;100070.75;4468125;32;33876;-73
2022/06/19 04:54:59;;;;;;;4.05;2.10;;;;;;;24.06;47.82;100084.97;4468874;32;34188;-74
2022/06/19 04:57:27;;;;;;;5.62;2.10;;;;;;;24.64;46.50;100082.59;4454743;32;33951;-74
2022/06/19 05:00:01;;;;;;;2.47;1.73;;;;;;;24.89;46.43;100083.59;4469126;32;35259;-77
2022/06/19 05:02:28;;;;;;;5.03;2.05;;;;;;;24.88;45.98;100083.91;4468122;32;34785;-78
2022/06/19 05:04:56;;;;;;;2.85;1.98;;;;;;;25.13;45.30;100082.13;4469248;32;33500;-71
2022/06/19 05:07:23;;;;;;;2.62;1.80;;;;;;;25.38;45.45;100086.69;4468479;32;34877;-73
2022/06/19 05:09:51;;;;;;;2.50;2.00;;;;;;;25.29;44.79;100090.66;4468718;32;34107;-69
2022/06/19 05:12:18;;;;;;;2.12;1.75;;;;;;;25.24;44.53;100088.91;4468634;32;34030;-79
2022/06/19 05:14:46;;;;;;;2.08;1.87;;;;;;;25.19;44.99;100097.44;4468882;32;33913;-69
2022/06/19 05:17:13;;;;;;;3.33;1.75;;;;;;;25.19;46.08;100094.66;4468581;32;34979;-76
2022/06/19 05:19:41;;;;;;;3.20;2.20;;;;;;;25.09;46.90;100100.59;4468670;32;33678;-73
2022/06/19 05:22:09;;;;;;;3.28;1.90;;;;;;;24.44;48.97;100100.78;4468268;32;33972;-76
2022/06/19 05:24:36;;;;;;;2.42;2.00;;;;;;;24.95;47.78;100103.66;4468347;32;33010;-76
2022/06/19 05:27:09;;;;;;;2.87;1.92;;;;;;;25.22;45.28;100105.09;4468155;32;33804;-72
2022/06/19 05:29:40;;;;;;;4.75;2.30;;;;;;;25.19;47.20;100091.87;4442305;32;33673;-68
2022/06/19 05:32:08;;;;;;;2.72;2.20;;;;;;;25.66;45.35;100097.22;4466622;32;34860;-67
2022/06/19 05:34:36;;;;;;;2.90;2.03;;;;;;;25.75;44.08;100094.34;4468571;32;34242;-67
2022/06/19 05:37:05;;;;;;;2.87;1.85;;;;;;;25.91;43.47;100091.75;4468744;32;34943;-67
2022/06/19 05:39:32;;;;;;;3.15;2.20;;;;;;;25.88;43.76;100089.62;4468773;32;34363;-67
2022/06/19 05:42:03;;;;;;;2.87;2.17;;;;;;;26.16;44.21;100095.41;4468460;32;33950;-68
2022/06/19 05:44:30;;;;;;;2.70;2.00;;;;;;;26.14;43.62;100103.28;4468595;32;34414;-69
2022/06/19 05:46:58;;;;;;;3.30;2.15;;;;;;;26.29;44.08;100097.03;4468567;32;33687;-75
2022/06/19 05:49:25;;;;;;;3.08;2.05;;;;;;;26.42;43.65;100094.25;4467519;32;34674;-69
2022/06/19 05:51:53;;;;;;;4.00;2.45;;;;;;;26.43;44.12;100093.09;4468013;32;34307;-69
2022/06/19 05:54:20;;;;;;;4.00;2.87;;;;;;;25.99;44.19;100096.41;4468414;32;33633;-67
2022/06/19 05:56:48;;;;;;;5.28;2.78;;;;;;;25.73;43.11;100105.00;4468467;32;33664;-67
2022/06/19 05:59:15;;;;;;;3.53;2.20;;;;;;;25.82;43.22;100107.69;4468535;32;34169;-68
2022/06/19 06:01:43;;;;;;;3.47;2.00;;;;;;;25.83;44.86;100099.00;4468320;32;33648;-70
2022/06/19 06:04:11;;;;;;;2.72;2.22;;;;;;;26.24;43.49;100107.56;4468531;32;33326;-72
2022/06/19 06:06:40;;;;;;;3.47;2.22;;;;;;;25.78;42.89;100104.75;4468326;32;34549;-68
2022/06/19 06:09:10;;;;;;;2.58;1.67;;;;;;;26.49;43.27;100094.47;4468731;32;33806;-74
2022/06/19 06:11:38;;;;;;;3.62;2.20;;;;;;;26.77;40.92;100098.19;4454027;32;33737;-68
2022/06/19 06:14:05;;;;;;;4.15;2.60;;;;;;;27.28;40.52;100100.56;4468105;32;33359;-72
2022/06/19 06:16:32;;;;;;;3.15;2.25;;;;;;;27.18;40.03;100095.47;4468470;32;34013;-67
2022/06/19 06:19:00;;;;;;;3.90;2.12;;;;;;;27.61;39.66;100103.09;4468091;32;35062;-67
2022/06/19 06:21:28;;;;;;;2.78;2.05;;;;;;;26.99;39.98;100094.09;4467871;32;34748;-79
2022/06/19 06:23:56;;;;;;;4.00;2.08;;;;;;;27.77;39.30;100100.34;4468450;32;33560;-78
2022/06/19 06:26:26;;;;;;;3.00;1.80;;;;;;;27.53;40.85;100094.91;4468021;32;33781;-79
2022/06/19 06:28:55;;;;;;;3.33;2.10;;;;;;;26.80;40.86;100097.53;4467927;32;34221;-69
2022/06/19 06:31:23;;;;;;;2.47;1.90;;;;;;;28.05;39.54;100104.31;4467974;32;34003;-80
2022/06/19 06:33:57;;;;;;;2.12;1.85;;;;;;;27.33;39.75;100110.66;4467975;32;33304;-70
2022/06/19 06:36:24;;;;;;;2.95;2.10;;;;;;;28.20;39.37;100101.50;4467823;32;33914;-79
2022/06/19 06:38:52;;;;;;;2.15;1.80;;;;;;;29.07;34.28;100107.19;4468001;32;35028;-67
2022/06/19 06:41:20;;;;;;;3.50;2.95;;;;;;;29.70;32.84;100111.75;4467992;32;34738;-79
2022/06/19 06:43:47;;;;;;;2.75;2.10;;;;;;;30.15;31.57;100112.16;4467780;32;33552;-79
2022/06/19 06:46:22;;;;;;;2.70;1.80;;;;;;;30.21;31.53;100108.69;4453844;32;34766;-79
2022/06/19 06:48:52;;;;;;;3.55;2.45;;;;;;;30.52;32.06;100108.81;4467774;32;34313;-77
2022/06/19 06:51:23;;;;;;;2.72;2.00;;;;;;;30.55;31.05;100108.88;4467657;32;34191;-70
2022/06/19 06:53:51;;;;;;;3.00;1.75;;;;;;;30.52;31.37;100108.81;4467735;32;33275;-68
2022/06/19 06:56:20;;;;;;;3.05;2.30;;;;;;;30.34;31.61;100112.13;4467405;32;34031;-67
2022/06/19 06:58:47;;;;;;;2.45;2.00;;;;;;;30.33;32.44;100107.72;4467878;32;34136;-79
2022/06/19 07:01:20;;;;;;;3.25;2.10;;;;;;;29.85;32.45;100108.06;4468441;32;34069;-68
2022/06/19 07:03:55;;;;;;;2.83;1.95;;;;;;;30.32;32.29;100113.69;4470124;32;33104;-68
2022/06/19 07:06:25;;;;;;;1.85;1.70;;;;;;;30.25;31.52;100115.16;4469521;32;34811;-70
2022/06/19 07:08:53;;;;;;;1.92;1.70;;;;;;;30.01;31.20;100121.94;4469732;32;34180;-80
2022/06/19 07:11:26;;;;;;;2.05;1.67;;;;;;;29.79;32.30;100112.34;4469628;32;34557;-79
2022/06/19 07:13:53;;;;;;;2.77;1.93;;;;;;;30.30;32.33;100116.06;4469845;32;34177;-82
2022/06/19 07:16:21;;;;;;;3.35;1.80;;;;;;;30.78;31.12;100111.66;4469496;32;34774;-69
2022/06/19 07:18:48;;;;;;;2.87;1.80;;;;;;;30.99;29.69;100101.94;4469441;32;34120;-68
2022/06/19 07:21:16;;;;;;;2.62;1.83;;;;;;;31.14;29.53;100100.97;4469579;32;34107;-73
2022/06/19 07:23:44;;;;;;;3.55;1.80;;;;;;;31.68;27.54;100096.88;4469705;32;33349;-71
2022/06/19 07:26:12;;;;;;;2.42;1.70;;;;;;;31.71;26.90;100100.91;4469788;32;34739;-67
2022/06/19 07:28:41;;;;;;;1.75;1.40;;;;;;;31.52;27.51;100106.69;4469846;32;34938;-73
2022/06/19 07:31:09;;;;;;;2.03;1.70;;;;;;;31.17;28.69;100099.41;4468985;32;33986;-68
2022/06/19 07:33:38;;;;;;;5.80;2.47;;;;;;;31.04;29.00;100099.66;4469522;32;33216;-79
2022/06/19 07:36:08;;;;;;;2.67;1.80;;;;;;;30.86;28.56;100101.37;4469504;32;34860;-68
2022/06/19 07:38:35;;;;;;;2.10;1.83;;;;;;;30.78;29.23;100102.44;4469609;32;34842;-72
2022/06/19 07:41:03;;;;;;;2.75;2.05;;;;;;;29.99;30.79;100101.91;4469782;32;33957;-71
2022/06/19 07:43:31;;;;;;;3.33;2.05;;;;;;;30.26;32.35;100097.19;4469417;32;33524;-70
2022/06/19 07:45:58;;;;;;;3.17;2.10;;;;;;;29.51;32.14;100097.78;4469569;32;34798;-68
2022/06/19 07:51:18;;;;;;;2.50;2.05;;;;;;;30.00;32.08;100091.50;4469124;32;35010;-73
2022/06/19 07:53:46;;;;;;;2.62;1.95;;;;;;;29.93;31.21;100083.81;4469197;32;32934;-70
2022/06/19 07:56:13;;;;;;;2.42;2.03;;;;;;;29.90;31.25;100086.56;4468936;32;34850;-68
2022/06/19 07:58:41;;;;;;;2.50;2.03;;;;;;;29.66;32.30;100082.88;4469421;32;34245;-70
2022/06/19 08:01:08;;;;;;;2.50;2.10;;;;;;;29.63;32.69;100084.44;4469325;32;34745;-70
2022/06/19 08:03:36;;;;;;;4.50;2.33;;;;;;;28.98;34.42;100084.25;4469113;32;33246;-73
2022/06/19 08:06:04;;;;;;;2.53;2.10;;;;;;;29.10;35.17;100080.56;4469420;32;34013;-66
2022/06/19 08:08:34;;;;;;;2.80;1.90;;;;;;;29.47;32.88;100071.72;4469187;32;35205;-71
2022/06/19 08:11:02;;;;;;;2.85;2.15;;;;;;;29.64;32.78;100074.06;4468855;32;34003;-79
2022/06/19 08:13:31;;;;;;;2.72;2.00;;;;;;;29.57;32.53;100063.56;4468627;32;34179;-74
2022/06/19 08:16:08;;;;;;;2.10;1.80;;;;;;;29.34;30.77;100062.69;4469470;32;35243;-70
2022/06/19 08:18:36;;;;;;;3.87;2.22;;;;;;;29.95;31.46;100075.06;4469146;32;34199;-70
2022/06/19 08:21:04;;;;;;;2.45;1.75;;;;;;;29.56;31.34;100059.12;4468952;32;33944;-66
2022/06/19 08:23:32;;;;;;;3.80;2.00;;;;;;;30.31;29.33;100053.31;4469038;32;33469;-68
2022/06/19 08:26:00;;;;;;;2.40;1.77;;;;;;;30.08;29.26;100056.09;4469117;32;33981;-70
2022/06/19 08:28:32;;;;;;;2.85;1.65;;;;;;;29.57;32.18;100046.78;4469051;32;35299;-69
2022/06/19 08:30:59;;;;;;;6.22;2.03;;;;;;;29.85;31.30;100043.72;4468814;32;34971;-72
2022/06/19 08:33:27;;;;;;;2.50;1.85;;;;;;;30.07;29.57;100049.69;4468882;32;34186;-76
2022/06/19 08:35:59;;;;;;;2.25;1.80;;;;;;;29.88;28.85;100052.56;4467289;32;33923;-72
2022/06/19 08:38:31;;;;;;;3.03;1.87;;;;;;;29.90;30.38;100051.00;4439465;32;34206;-70
2022/06/19 08:41:24;;;;;;;2.60;1.92;;;;;;;30.00;28.49;100043.97;4439343;32;34364;-72
2022/06/19 08:44:10;;;;;;;2.65;1.83;;;;;;;30.04;29.95;100050.41;4453520;32;34431;-71
2022/06/19 08:47:12;;;;;;;1.87;1.73;;;;;;;29.69;30.63;100051.41;4438735;32;33629;-72
2022/06/19 08:49:57;;;;;;;2.92;2.00;;;;;;;29.64;29.38;100048.91;4412519;32;34961;-68
2022/06/19 08:52:32;;;;;;;3.25;2.20;;;;;;;30.13;30.08;100051.00;4453227;32;33947;-72
2022/06/19 08:55:24;;;;;;;6.35;2.30;;;;;;;30.31;30.71;100050.50;4439623;32;33603;-69
2022/06/19 08:57:58;;;;;;;2.28;1.80;;;;;;;30.65;31.40;100049.44;4453285;32;34897;-73
2022/06/19 09:00:40;;;;;;;2.53;1.90;;;;;;;30.39;28.37;100050.25;4439184;32;34970;-77
2022/06/19 09:06:52;;;;;;;3.42;2.28;;;;;;;30.37;30.29;100035.03;4464226;32;33159;-70
2022/06/19 09:09:29;;;;;;;2.35;1.90;;;;;;;30.09;28.52;100043.69;4455386;32;33885;-68
2022/06/19 09:12:17;;;;;;;2.33;1.75;;;;;;;29.99;29.58;100054.34;4454187;32;35149;-67
2022/06/19 09:14:57;;;;;;;2.78;1.90;;;;;;;29.86;30.52;100047.31;4454370;32;34940;-79
2022/06/19 09:17:29;;;;;;;4.35;1.98;;;;;;;29.76;29.57;100042.34;4439221;32;34559;-70
2022/06/19 09:20:14;;;;;;;5.43;2.12;;;;;;;29.81;31.19;100039.25;4452119;32;34645;-73
2022/06/19 09:23:15;;;;;;;3.35;2.17;;;;;;;30.14;30.64;100038.59;4451449;32;34056;-69
2022/06/19 09:25:49;;;;;;;3.90;1.80;;;;;;;30.31;30.43;100030.91;4435165;32;34144;-72
2022/06/19 09:28:46;;;;;;;2.40;1.90;;;;;;;30.52;31.48;100031.25;4439246;32;33435;-70
2022/06/19 09:31:35;;;;;;;2.60;1.90;;;;;;;30.65;29.01;100026.22;4438351;32;34701;-75
2022/06/19 09:34:11;;;;;;;2.00;1.80;;;;;;;30.20;28.49;100025.91;4450695;32;34980;-64
2022/06/19 09:37:02;;;;;;;2.42;1.90;;;;;;;30.32;28.20;100018.53;4452298;32;33564;-67
2022/06/19 09:39:48;;;;;;;3.25;1.92;;;;;;;29.86;29.50;100010.97;4464883;32;33632;-71
2022/06/19 09:42:39;;;;;;;3.75;2.05;;;;;;;30.29;30.24;100016.50;4467956;32;34078;-66
2022/06/19 09:45:13;;;;;;;2.90;1.98;;;;;;;30.41;28.30;100017.09;4466754;32;35077;-69
2022/06/19 09:47:44;;;;;;;;;;;;;;;30.43;28.73;100023.13;4453652;32;34608;-66
2022/06/19 09:50:39;;;;;;;5.43;2.40;;;;;;;30.49;28.02;100019.97;4466620;32;33898;-68
2022/06/19 09:53:10;;;;;;;4.37;1.92;;;;;;;30.58;28.71;100006.50;4465996;32;34047;-68
2022/06/19 09:55:41;;;;;;;3.97;2.20;;;;;;;30.74;29.12;100012.75;4468120;32;34945;-72
2022/06/19 09:58:29;;;;;;;3.08;2.08;;;;;;;30.67;29.99;100009.84;4453695;32;34002;-76
2022/06/19 10:00:58;;;;;;;3.08;2.10;;;;;;;31.06;28.14;100006.78;4453932;32;33564;-77
2022/06/19 10:03:37;;;;;;;2.92;1.95;;;;;;;30.82;25.97;99997.66;4453614;32;34826;-77
2022/06/19 10:06:34;;;;;;;2.28;1.50;;;;;;;30.61;28.43;100000.16;4452594;32;34675;-72
2022/06/19 10:09:10;;;;;;;3.75;1.92;;;;;;;30.86;27.51;99990.12;4465515;32;34060;-80
2022/06/19 10:11:41;;;;;;;3.20;2.05;;;;;;;30.99;26.14;99992.69;4453699;32;33905;-79
2022/06/19 10:14:27;;;;;;;3.85;2.17;;;;;;;31.02;29.32;99995.53;4448210;32;33852;-73
2022/06/19 10:17:03;;;;;;;4.12;1.48;;;;;;;31.41;25.66;99997.16;4467197;32;34196;-71
2022/06/19 10:19:42;;;;;;;2.95;1.90;;;;;;;31.21;26.07;99997.38;4466175;32;34721;-71
2022/06/19 10:22:30;;;;;;;2.60;1.87;;;;;;;31.17;25.92;99985.31;4452428;32;34396;-75
2022/06/19 10:25:10;;;;;;;1.60;1.50;;;;;;;30.89;26.48;99982.12;4467306;32;33843;-72
2022/06/19 10:28:15;;;;;;;3.65;1.77;;;;;;;30.41;27.31;99982.66;4467313;32;34834;-72
2022/06/19 10:31:06;;;;;;;2.55;1.87;;;;;;;30.62;25.81;99968.97;4467308;32;34555;-72
2022/06/19 10:33:47;;;;;;;2.75;1.80;;;;;;;31.34;26.61;99966.25;4467056;32;34924;-72
2022/06/19 10:36:42;;;;;;;2.00;1.52;;;;;;;31.31;27.32;99969.81;4468557;32;34704;-71
2022/06/19 10:39:17;;;;;;;1.98;1.75;;;;;;;31.32;26.15;99963.00;4469005;32;34838;-72
2022/06/19 10:42:23;;;;;;;2.75;1.80;;;;;;;30.81;26.21;99964.41;4454949;32;33885;-73
2022/06/19 10:45:05;;;;;;;2.60;1.80;;;;;;;31.09;24.94;99951.97;4467698;32;33328;-74
2022/06/19 10:47:51;;;;;;;4.18;1.60;;;;;;;31.54;26.46;99953.66;4469383;32;34317;-72
2022/06/19 10:50:23;;;;;;;2.00;1.70;;;;;;;30.79;26.14;99942.38;4468942;32;34217;-73
2022/06/19 10:53:29;;;;;;;2.78;1.95;;;;;;;31.09;26.77;99940.75;4468836;32;34762;-75
2022/06/19 10:56:15;;;;;;;3.90;1.70;;;;;;;31.05;26.52;99937.91;4439464;32;33487;-74
2022/06/19 10:58:45;;;;;;;2.33;1.77;;;;;;;31.14;25.02;99944.00;4453515;32;34685;-74
2022/06/19 11:04:06;;;;;;;2.22;1.70;;;;;;;30.97;25.74;99942.66;4453552;32;33923;-73
2022/06/19 11:04:11;;;;;;;3.72;1.90;;;;;;;31.64;27.29;99932.50;4453165;32;34032;-72
2022/06/19 11:06:43;;;;;;;1.73;1.58;;;;;;;30.91;25.50;99934.94;4453435;32;34268;-74
2022/06/19 11:09:19;;;;;;;2.45;1.50;;;;;;;31.43;24.12;99928.31;4453631;32;33444;-72
2022/06/19 11:11:52;;;;;;;2.60;1.67;;;;;;;31.11;25.91;99930.78;4453528;32;34197;-74
2022/06/19 11:14:34;;;;;;;2.85;1.60;;;;;;;30.95;25.54;99925.41;4452495;32;34075;-73
2022/06/19 11:17:06;;;;;;;2.10;1.55;;;;;;;30.67;26.31;99940.66;4439800;32;33567;-72
2022/06/19 11:19:41;;;;;;;2.85;1.52;;;;;;;30.67;25.39;99923.03;4453166;32;33982;-74
2022/06/19 11:22:28;;;;;;;2.97;1.40;;;;;;;30.88;25.19;99914.09;4452926;32;33347;-72
2022/06/19 11:24:56;;;;;;;2.10;1.30;;;;;;;31.05;25.79;99932.31;4439634;32;33988;-76
2022/06/19 11:27:26;;;;;;;1.98;1.50;;;;;;;31.07;26.06;99933.53;4454964;32;33615;-75
2022/06/19 11:29:55;;;;;;;2.12;1.52;;;;;;;31.09;24.70;99921.94;4454982;32;33909;-72
2022/06/19 11:32:25;;;;;;;1.35;1.15;;;;;;;31.76;25.96;99914.59;4468949;32;33875;-73
2022/06/19 11:35:00;;;;;;;2.20;1.58;;;;;;;31.32;23.62;99904.13;4469422;32;33991;-73
2022/06/19 11:37:28;;;;;;;2.30;1.33;;;;;;;31.11;25.71;99896.34;4469470;32;33892;-73
2022/06/19 11:39:58;;;;;;;1.80;1.70;;;;;;;31.55;25.56;99903.97;4469238;32;34078;-76
2022/06/19 11:42:28;;;;;;;1.77;1.30;;;;;;;31.37;23.90;99890.59;4468321;32;34993;-74
2022/06/19 11:44:59;;;;;;;3.03;2.08;;;;;;;31.85;27.39;99901.81;4469321;32;34119;-73
2022/06/19 11:47:38;;;;;;;1.62;1.20;;;;;;;31.70;24.68;99902.91;4468871;32;33555;-73
2022/06/19 11:50:19;;;;;;;1.60;1.40;;;;;;;32.16;22.30;99894.06;4469230;32;33852;-76
2022/06/19 11:52:50;;;;;;;1.83;1.30;;;;;;;31.78;26.38;99898.97;4454580;32;34185;-78
2022/06/19 11:55:27;;;;;;;1.77;1.20;;;;;;;32.13;25.60;99899.63;4450479;32;34173;-76
2022/06/19 11:58:05;;;;;;;1.75;1.33;;;;;;;31.87;24.14;99896.63;4453199;32;34312;-73
2022/06/19 12:00:34;;;;;;;1.65;1.27;;;;;;;31.86;23.46;99903.44;4453565;32;33911;-74